createdAt,value
2019-02-18T00:02:36.000Z,19.50
2019-02-18T00:05:40.683Z,22.07
2019-02-18T00:08:44.496Z,19.77
2019-02-18T00:11:47.097Z,21.90
2019-02-18T00:14:49.739Z,20.73
2019-02-18T00:17:52.496Z,21.37
2019-02-18T00:20:55.166Z,19.87
2019-02-18T00:23:57.785Z,20.90
2019-02-18T00:27:00.394Z,19.67
2019-02-18T00:30:03.111Z,17.60
2019-02-18T00:33:05.898Z,18.37
2019-02-18T00:36:08.646Z,21.40
2019-02-18T00:39:11.314Z,21.77
2019-02-18T00:42:13.936Z,17.67
2019-02-18T00:45:16.690Z,17.23
2019-02-18T00:48:19.268Z,20.37
2019-02-18T00:51:21.794Z,21.17
2019-02-18T00:54:24.338Z,17.87
2019-02-18T00:57:26.936Z,17.90
2019-02-18T01:00:29.610Z,15.73
2019-02-18T01:03:32.194Z,18.50
2019-02-18T01:06:34.767Z,18.43
2019-02-18T01:09:39.675Z,16.67
2019-02-18T01:12:42.241Z,15.37
2019-02-18T01:15:44.841Z,17.47
2019-02-18T01:18:47.440Z,16.10
2019-02-18T01:21:50.129Z,15.70
2019-02-18T01:24:52.835Z,17.53
2019-02-18T01:27:55.407Z,19.30
2019-02-18T01:30:58.134Z,16.80
2019-02-18T01:34:00.880Z,17.53
2019-02-18T01:37:03.471Z,16.93
2019-02-18T01:40:08.437Z,17.97
2019-02-18T01:43:11.034Z,15.30
2019-02-18T01:46:13.594Z,16.57
2019-02-18T01:49:17.249Z,17.27
2019-02-18T01:52:19.871Z,18.00
2019-02-18T01:55:23.644Z,17.73
2019-02-18T01:58:26.346Z,16.23
2019-02-18T02:01:30.141Z,17.20
2019-02-18T02:04:32.739Z,19.13
2019-02-18T02:07:35.329Z,15.50
2019-02-18T02:10:37.929Z,18.13
2019-02-18T02:13:40.517Z,18.70
2019-02-18T02:16:43.229Z,14.47
2019-02-18T02:19:45.819Z,14.70
2019-02-18T02:22:48.385Z,16.90
2019-02-18T02:25:51.014Z,15.33
2019-02-18T02:28:53.634Z,16.43
2019-02-18T02:31:57.312Z,15.07
2019-02-18T02:34:59.960Z,16.30
2019-02-18T02:38:07.569Z,17.53
2019-02-18T02:41:08.519Z,17.30
2019-02-18T02:44:11.271Z,19.80
2019-02-18T02:47:13.951Z,16.70
2019-02-18T02:50:17.720Z,16.73
2019-02-18T02:53:20.356Z,16.80
2019-02-18T02:56:22.919Z,17.17
2019-02-18T02:59:25.514Z,14.40
2019-02-18T03:02:28.084Z,18.27
2019-02-18T03:05:30.712Z,17.53
2019-02-18T03:08:33.348Z,17.17
2019-02-18T03:11:35.958Z,17.37
2019-02-18T03:14:38.629Z,17.37
2019-02-18T03:17:41.306Z,15.80
2019-02-18T03:20:43.886Z,17.73
2019-02-18T03:23:46.453Z,18.13
2019-02-18T03:26:49.034Z,16.73
2019-02-18T03:30:37.031Z,18.10
2019-02-18T03:33:51.858Z,15.60
2019-02-18T03:36:54.606Z,16.40
2019-02-18T03:39:57.250Z,17.40
2019-02-18T03:42:59.899Z,17.97
2019-02-18T03:46:02.548Z,17.23
2019-02-18T03:49:05.214Z,19.13
2019-02-18T03:52:07.836Z,14.57
2019-02-18T03:55:10.589Z,16.57
2019-02-18T03:58:13.194Z,19.53
2019-02-18T04:01:15.783Z,14.80
2019-02-18T04:04:18.544Z,16.90
2019-02-18T04:07:21.194Z,17.80
2019-02-18T04:10:23.820Z,14.30
2019-02-18T04:13:26.522Z,19.87
2019-02-18T04:16:29.169Z,20.23
2019-02-18T04:19:31.737Z,16.23
2019-02-18T04:22:34.485Z,21.33
2019-02-18T04:25:37.057Z,16.13
2019-02-18T04:28:39.669Z,16.50
2019-02-18T04:31:42.223Z,24.20
2019-02-18T04:34:44.829Z,19.03
2019-02-18T04:37:47.512Z,19.43
2019-02-18T04:40:50.198Z,16.40
2019-02-18T04:43:52.750Z,19.60
2019-02-18T04:46:55.307Z,17.80
2019-02-18T04:49:58.003Z,17.00
2019-02-18T04:53:01.846Z,18.03
2019-02-18T04:56:04.375Z,16.80
2019-02-18T04:59:07.019Z,15.83
2019-02-18T05:02:09.559Z,16.97
2019-02-18T05:05:12.151Z,14.80
2019-02-18T05:08:14.725Z,17.10
2019-02-18T05:11:17.392Z,18.83
2019-02-18T05:14:20.054Z,19.53
2019-02-18T05:17:22.664Z,16.93
2019-02-18T05:20:25.303Z,17.83
2019-02-18T05:23:27.895Z,15.57
2019-02-18T05:26:30.493Z,17.23
2019-02-18T05:29:33.283Z,15.93
2019-02-18T05:32:35.930Z,21.27
2019-02-18T05:35:38.583Z,19.17
2019-02-18T05:38:41.392Z,20.20
2019-02-18T05:41:45.032Z,19.33
2019-02-18T05:44:47.606Z,17.97
2019-02-18T05:47:50.166Z,16.90
2019-02-18T05:50:52.770Z,19.03
2019-02-18T05:53:55.328Z,18.33
2019-02-18T05:56:57.946Z,17.63
2019-02-18T06:00:00.724Z,26.77
2019-02-18T06:03:03.433Z,19.00
2019-02-18T06:06:07.134Z,20.47
2019-02-18T06:09:09.757Z,18.57
2019-02-18T06:12:12.515Z,16.33
2019-02-18T06:15:15.056Z,17.17
2019-02-18T06:18:17.789Z,19.17
2019-02-18T06:21:20.480Z,16.10
2019-02-18T06:24:23.049Z,17.57
2019-02-18T06:27:25.609Z,24.30
2019-02-18T06:30:28.313Z,19.73
2019-02-18T06:33:30.963Z,19.50
2019-02-18T06:36:33.585Z,19.90
2019-02-18T06:39:41.494Z,21.17
2019-02-18T06:42:41.425Z,19.43
2019-02-18T06:46:03.022Z,18.83
2019-02-18T06:49:17.255Z,19.70
2019-02-18T06:52:20.784Z,15.60
2019-02-18T06:55:23.463Z,18.00
2019-02-18T06:58:48.499Z,17.10
2019-02-18T07:01:58.732Z,21.40
2019-02-18T07:05:12.961Z,16.87
2019-02-18T07:08:41.474Z,17.13
2019-02-18T07:11:48.895Z,17.33
2019-02-18T07:14:51.674Z,17.37
2019-02-18T07:17:54.263Z,15.67
2019-02-18T07:20:56.930Z,15.00
2019-02-18T07:23:59.462Z,15.70
2019-02-18T07:27:02.030Z,16.40
2019-02-18T07:30:07.019Z,18.50
2019-02-18T07:33:09.613Z,22.30
2019-02-18T07:36:12.245Z,17.20
2019-02-18T07:39:14.788Z,20.43
2019-02-18T07:42:17.457Z,17.50
2019-02-18T07:45:20.027Z,18.20
2019-02-18T07:48:22.845Z,18.50
2019-02-18T07:51:25.417Z,21.07
2019-02-18T07:54:29.132Z,19.20
2019-02-18T07:57:31.717Z,17.50
2019-02-18T08:00:34.403Z,17.97
2019-02-18T08:03:37.055Z,17.43
2019-02-18T08:06:39.660Z,18.20
2019-02-18T08:09:42.404Z,21.80
2019-02-18T08:12:45.055Z,19.97
2019-02-18T08:15:47.614Z,16.47
2019-02-18T08:18:50.158Z,22.53
2019-02-18T08:21:52.848Z,19.23
2019-02-18T08:24:55.390Z,19.83
2019-02-18T08:27:57.978Z,16.70
2019-02-18T08:31:00.601Z,22.47
2019-02-18T08:34:03.274Z,20.50
2019-02-18T08:37:06.023Z,20.70
2019-02-18T08:40:09.009Z,24.13
2019-02-18T08:43:11.571Z,19.00
2019-02-18T08:46:14.203Z,18.63
2019-02-18T08:49:16.863Z,20.00
2019-02-18T08:52:19.542Z,20.33
2019-02-18T08:55:22.219Z,19.50
2019-02-18T08:58:24.879Z,19.20
2019-02-18T09:01:27.544Z,23.10
2019-02-18T09:04:30.157Z,22.83
2019-02-18T09:07:32.853Z,20.90
2019-02-18T09:10:35.449Z,21.33
2019-02-18T09:13:38.208Z,20.77
2019-02-18T09:16:40.946Z,22.50
2019-02-18T09:19:43.571Z,22.10
2019-02-18T09:23:05.092Z,22.67
2019-02-18T09:26:07.697Z,25.63
2019-02-18T09:29:10.275Z,22.17
2019-02-18T09:32:12.898Z,20.53
2019-02-18T09:35:15.728Z,22.47
2019-02-18T09:38:25.062Z,20.17
2019-02-18T09:41:23.066Z,21.83
2019-02-18T09:44:25.828Z,19.87
2019-02-18T09:47:28.436Z,19.70
2019-02-18T09:50:31.183Z,20.47
2019-02-18T09:53:33.813Z,21.93
2019-02-18T09:56:37.053Z,26.07
2019-02-18T09:59:39.762Z,19.80
2019-02-18T10:02:42.461Z,23.13
2019-02-18T10:05:45.058Z,26.97
2019-02-18T10:08:47.647Z,23.30
2019-02-18T10:11:50.303Z,28.23
2019-02-18T10:14:52.883Z,23.83
2019-02-18T10:17:55.447Z,24.90
2019-02-18T10:20:58.069Z,19.93
2019-02-18T10:24:00.747Z,23.03
2019-02-18T10:27:03.617Z,25.63
2019-02-18T10:30:06.654Z,23.40
2019-02-18T10:33:09.362Z,19.90
2019-02-18T10:36:12.026Z,22.60
2019-02-18T10:39:14.584Z,23.23
2019-02-18T10:42:17.167Z,24.00
2019-02-18T10:45:19.910Z,22.57
2019-02-18T10:48:22.597Z,25.20
2019-02-18T10:51:25.276Z,18.40
2019-02-18T10:54:28.058Z,22.23
2019-02-18T10:57:32.518Z,20.13
2019-02-18T11:00:35.138Z,23.13
2019-02-18T11:03:37.761Z,22.67
2019-02-18T11:06:40.348Z,23.77
2019-02-18T11:09:43.238Z,23.60
2019-02-18T11:12:47.652Z,19.37
2019-02-18T11:15:50.398Z,20.97
2019-02-18T11:18:53.087Z,21.80
2019-02-18T11:21:55.778Z,21.90
2019-02-18T11:24:58.483Z,21.30
2019-02-18T11:28:01.251Z,25.57
2019-02-18T11:31:04.015Z,25.50
2019-02-18T11:34:06.734Z,23.00
2019-02-18T11:37:09.427Z,22.03
2019-02-18T11:40:13.206Z,22.83
2019-02-18T11:43:15.866Z,22.10
2019-02-18T11:46:18.492Z,24.20
2019-02-18T11:49:21.172Z,23.07
2019-02-18T11:52:23.882Z,22.97
2019-02-18T11:55:26.611Z,24.50
2019-02-18T11:58:29.303Z,24.93
2019-02-18T12:01:32.172Z,24.17
2019-02-18T12:04:34.886Z,24.63
2019-02-18T12:07:37.596Z,22.23
2019-02-18T12:10:40.301Z,23.23
2019-02-18T12:13:43.111Z,24.27
2019-02-18T12:16:45.931Z,25.80
2019-02-18T12:19:48.558Z,26.23
2019-02-18T12:22:51.206Z,26.13
2019-02-18T12:25:54.375Z,22.00
2019-02-18T12:28:57.047Z,23.07
2019-02-18T12:31:59.857Z,23.07
2019-02-18T12:35:02.607Z,21.20
2019-02-18T12:38:05.321Z,20.53
2019-02-18T12:41:08.026Z,23.60
2019-02-18T12:44:12.344Z,23.70
2019-02-18T12:47:15.037Z,22.77
2019-02-18T12:50:17.766Z,17.93
2019-02-18T12:53:23.431Z,22.77
2019-02-18T12:56:26.136Z,19.80
2019-02-18T12:59:29.187Z,21.83
2019-02-18T13:02:43.395Z,23.83
2019-02-18T13:05:38.366Z,23.40
2019-02-18T13:08:41.263Z,21.30
2019-02-18T13:11:43.963Z,22.50
2019-02-18T13:14:46.660Z,19.47
2019-02-18T13:17:49.453Z,20.47
2019-02-18T13:20:52.112Z,19.83
2019-02-18T13:23:54.831Z,23.43
2019-02-18T13:26:57.630Z,21.30
2019-02-18T13:30:00.365Z,20.40
2019-02-18T13:33:03.046Z,23.60
2019-02-18T13:36:11.173Z,25.73
2019-02-18T13:39:15.099Z,20.87
2019-02-18T13:42:17.772Z,20.80
2019-02-18T13:45:20.467Z,19.37
2019-02-18T13:48:23.164Z,22.13
2019-02-18T13:51:25.840Z,22.17
2019-02-18T13:54:28.501Z,21.63
2019-02-18T13:57:31.207Z,20.00
2019-02-18T14:00:34.260Z,25.50
2019-02-18T14:03:37.061Z,24.23
2019-02-18T14:06:39.730Z,19.63
2019-02-18T14:09:42.709Z,21.97
2019-02-18T14:12:45.407Z,25.80
2019-02-18T14:15:48.070Z,22.30
2019-02-18T14:18:50.777Z,20.07
2019-02-18T14:21:53.411Z,20.50
2019-02-18T14:24:57.989Z,20.73
2019-02-18T14:28:00.757Z,21.00
2019-02-18T14:31:04.396Z,20.47
2019-02-18T14:34:07.126Z,23.63
2019-02-18T14:37:09.851Z,21.10
2019-02-18T14:40:15.506Z,20.77
2019-02-18T14:43:18.187Z,21.03
2019-02-18T14:46:20.916Z,23.40
2019-02-18T14:49:23.576Z,20.93
2019-02-18T14:52:26.443Z,17.63
2019-02-18T14:55:29.046Z,24.40
2019-02-18T14:58:31.785Z,23.77
2019-02-18T15:01:34.485Z,20.63
2019-02-18T15:04:37.136Z,18.50
2019-02-18T15:07:39.854Z,20.83
2019-02-18T15:10:42.526Z,25.83
2019-02-18T15:13:47.131Z,20.87
2019-02-18T15:16:49.796Z,24.83
2019-02-18T15:19:52.479Z,20.43
2019-02-18T15:22:55.252Z,21.60
2019-02-18T15:25:57.952Z,28.80
2019-02-18T15:29:00.563Z,20.63
2019-02-18T15:32:03.262Z,21.47
2019-02-18T15:35:06.302Z,20.77
2019-02-18T15:38:09.301Z,21.33
2019-02-18T15:41:12.014Z,22.30
2019-02-18T15:44:14.728Z,24.57
2019-02-18T15:47:18.768Z,22.57
2019-02-18T15:50:21.720Z,21.37
2019-02-18T15:53:24.409Z,16.40
2019-02-18T15:56:27.632Z,19.63
2019-02-18T15:59:30.345Z,21.20
2019-02-18T16:02:33.115Z,18.70
2019-02-18T16:05:35.951Z,19.53
2019-02-18T16:08:38.732Z,17.77
2019-02-18T16:11:41.361Z,21.00
2019-02-18T16:14:43.996Z,18.90
2019-02-18T16:17:46.677Z,23.23
2019-02-18T16:20:49.532Z,20.70
2019-02-18T16:23:52.241Z,24.30
2019-02-18T16:26:54.946Z,20.33
2019-02-18T16:29:58.762Z,19.23
2019-02-18T16:33:01.454Z,23.33
2019-02-18T16:36:04.507Z,23.87
2019-02-18T16:39:07.470Z,20.20
2019-02-18T16:42:10.134Z,19.97
2019-02-18T16:45:13.427Z,24.10
2019-02-18T16:48:16.110Z,22.60
2019-02-18T16:51:18.776Z,22.90
2019-02-18T16:54:21.459Z,21.33
2019-02-18T16:57:24.134Z,26.57
2019-02-18T17:00:30.534Z,23.63
2019-02-18T17:03:33.271Z,26.33
2019-02-18T17:06:35.984Z,26.63
2019-02-18T17:09:38.741Z,22.87
2019-02-18T17:12:42.526Z,23.87
2019-02-18T17:15:48.784Z,24.67
2019-02-18T17:18:51.465Z,28.50
2019-02-18T17:21:54.181Z,24.17
2019-02-18T17:24:57.045Z,22.47
2019-02-18T17:27:59.781Z,27.77
2019-02-18T17:31:02.434Z,28.07
2019-02-18T17:34:05.481Z,26.17
2019-02-18T17:37:08.470Z,23.10
2019-02-18T17:40:11.625Z,27.20
2019-02-18T17:43:16.624Z,25.37
2019-02-18T17:46:19.170Z,30.73
2019-02-18T17:49:21.941Z,27.80
2019-02-18T17:52:24.582Z,27.17
2019-02-18T17:55:27.221Z,29.17
2019-02-18T17:58:30.015Z,24.70
2019-02-18T18:01:33.855Z,29.03
2019-02-18T18:04:36.518Z,31.80
2019-02-18T18:07:39.247Z,27.40
2019-02-18T18:10:41.900Z,30.40
2019-02-18T18:13:44.593Z,26.00
2019-02-18T18:16:47.214Z,29.90
2019-02-18T18:19:49.979Z,23.63
2019-02-18T18:22:52.643Z,29.93
2019-02-18T18:25:55.332Z,28.20
2019-02-18T18:28:58.050Z,24.60
2019-02-18T18:32:00.731Z,27.07
2019-02-18T18:35:04.478Z,25.03
2019-02-18T18:38:08.872Z,25.17
2019-02-18T18:41:14.641Z,27.60
2019-02-18T18:44:17.545Z,29.10
2019-02-18T18:47:20.378Z,27.67
2019-02-18T18:50:24.575Z,30.90
2019-02-18T18:53:27.285Z,27.80
2019-02-18T18:56:29.987Z,25.80
2019-02-18T18:59:32.629Z,26.50
2019-02-18T19:02:35.401Z,28.37
2019-02-18T19:05:38.141Z,28.93
2019-02-18T19:08:40.885Z,24.87
2019-02-18T19:11:43.525Z,28.20
2019-02-18T19:14:46.176Z,26.27
2019-02-18T19:17:48.893Z,22.33
2019-02-18T19:20:51.562Z,22.60
2019-02-18T19:23:54.345Z,28.87
2019-02-18T19:26:57.049Z,26.30
2019-02-18T19:29:59.903Z,25.30
2019-02-18T19:33:02.469Z,26.63
2019-02-18T19:36:05.305Z,25.87
2019-02-18T19:39:08.239Z,25.67
2019-02-18T19:42:10.996Z,26.70
2019-02-18T19:45:17.939Z,28.00
2019-02-18T19:48:20.655Z,23.63
2019-02-18T19:51:23.530Z,26.27
2019-02-18T19:54:26.246Z,24.37
2019-02-18T19:57:29.033Z,26.40
2019-02-18T20:00:31.769Z,22.27
2019-02-18T20:03:34.564Z,22.57
2019-02-18T20:06:40.414Z,21.57
2019-02-18T20:09:43.094Z,25.27
2019-02-18T20:12:46.850Z,23.63
2019-02-18T20:15:49.579Z,24.87
2019-02-18T20:18:52.295Z,20.03
2019-02-18T20:21:54.945Z,24.70
2019-02-18T20:24:57.980Z,23.30
2019-02-18T20:28:00.744Z,19.30
2019-02-18T20:31:03.490Z,23.70
2019-02-18T20:34:06.475Z,20.20
2019-02-18T20:37:09.570Z,21.87
2019-02-18T20:40:12.685Z,20.13
2019-02-18T20:43:15.896Z,19.27
2019-02-18T20:46:18.605Z,19.60
2019-02-18T20:49:21.259Z,21.33
2019-02-18T20:52:24.350Z,19.23
2019-02-18T20:55:27.080Z,20.50
2019-02-18T20:58:30.010Z,19.60
2019-02-18T21:01:33.165Z,20.40
2019-02-18T21:04:35.962Z,18.50
2019-02-18T21:07:38.703Z,20.87
2019-02-18T21:10:41.440Z,23.93
2019-02-18T21:13:44.264Z,20.83
2019-02-18T21:16:46.943Z,19.40
2019-02-18T21:19:49.691Z,20.97
2019-02-18T21:22:53.185Z,20.63
2019-02-18T21:25:56.129Z,20.87
2019-02-18T21:28:58.834Z,19.70
2019-02-18T21:32:02.473Z,20.20
2019-02-18T21:35:05.599Z,18.50
2019-02-18T21:38:08.585Z,15.93
2019-02-18T21:41:11.344Z,16.83
2019-02-18T21:44:14.137Z,19.00
2019-02-18T21:47:17.769Z,18.93
2019-02-18T21:50:20.484Z,16.70
2019-02-18T21:53:23.267Z,17.47
2019-02-18T21:56:26.106Z,16.53
2019-02-18T21:59:28.679Z,16.93
2019-02-18T22:02:31.423Z,13.10
2019-02-18T22:05:34.200Z,17.43
2019-02-18T22:08:36.985Z,15.10
2019-02-18T22:11:39.688Z,19.90
2019-02-18T22:14:42.349Z,17.37
2019-02-18T22:17:45.108Z,16.83
2019-02-18T22:20:48.121Z,16.90
2019-02-18T22:23:50.842Z,18.40
2019-02-18T22:26:53.455Z,18.60
2019-02-18T22:29:56.157Z,15.83
2019-02-18T22:32:58.814Z,16.97
2019-02-18T22:36:01.452Z,15.07
2019-02-18T22:39:05.194Z,15.00
2019-02-18T22:42:09.666Z,21.70
2019-02-18T22:45:12.493Z,21.63
2019-02-18T22:48:15.303Z,21.03
2019-02-18T22:51:18.103Z,16.47
2019-02-18T22:54:20.878Z,15.93
2019-02-18T22:57:23.547Z,16.03
2019-02-18T23:00:52.290Z,17.00
2019-02-18T23:03:55.122Z,16.70
2019-02-18T23:06:58.097Z,19.30
2019-02-18T23:10:00.901Z,20.97
2019-02-18T23:13:03.561Z,15.10
2019-02-18T23:16:06.359Z,15.83
2019-02-18T23:19:09.967Z,18.17
2019-02-18T23:22:12.692Z,17.00
2019-02-18T23:25:15.352Z,15.60
2019-02-18T23:28:18.034Z,14.27
2019-02-18T23:31:20.732Z,22.00
2019-02-18T23:34:23.515Z,18.23
2019-02-18T23:37:26.166Z,15.50
2019-02-18T23:40:28.754Z,16.83
2019-02-18T23:43:31.474Z,19.40
2019-02-18T23:46:34.182Z,20.07
2019-02-18T23:49:36.876Z,17.60
2019-02-18T23:52:39.553Z,20.43
2019-02-18T23:55:43.131Z,16.67
2019-02-18T23:58:45.813Z,17.60
